Terminal Aerodrome Forecast
Issued by NWS Upton, NY

Home | Current Version | Previous Version | Text Only | Print | Product List | Glossary On
Versions: 1 2 3 4 5 6 7 8 9 10 11 12 13 14 15 16 17 18 19 20 21 22 23 24 25 26 27 28
000
FTUS41 KOKX 011909 AAA
TAFJFK
TAF AMD
KJFK 011909Z 0119/0224 11010KT 6SM -RA BR BKN012 OVC025
     FM012200 08008KT 3SM -RADZ BR OVC010
     FM020200 06005KT 2SM -RADZ BR OVC005
     FM021200 07006KT 3SM -RA BR OVC007
     FM021600 14006KT 5SM BR SCT009 OVC015
     FM022000 VRB05KT P6SM SCT020 OVC040=

USA.gov is the U.S. government's official web portal to all federal, state and local government web resources and services.